createdAt,value
2023-02-12T00:01:41.243Z,60.77
2023-02-12T00:06:48.657Z,60.94
2023-02-12T00:11:55.886Z,60.89
2023-02-12T00:17:03.027Z,61.34
2023-02-12T00:22:10.145Z,61.13
2023-02-12T00:27:17.447Z,60.82
2023-02-12T00:32:24.785Z,60.71
2023-02-12T00:37:32.246Z,60.85
2023-02-12T00:42:39.796Z,61.17
2023-02-12T00:47:47.637Z,61.00
2023-02-12T00:52:55.177Z,60.72
2023-02-12T00:58:02.659Z,60.69
2023-02-12T01:03:10.167Z,60.62
2023-02-12T01:08:17.958Z,60.85
2023-02-12T01:13:26.070Z,60.79
2023-02-12T01:18:33.319Z,60.82
2023-02-12T01:23:40.751Z,60.69
2023-02-12T01:28:51.282Z,60.71
2023-02-12T01:33:59.696Z,60.72
2023-02-12T01:39:08.024Z,60.62
2023-02-12T01:44:17.693Z,60.64
2023-02-12T01:49:28.734Z,60.45
2023-02-12T01:54:36.961Z,60.43
2023-02-12T01:59:45.411Z,60.62
2023-02-12T02:04:54.112Z,60.61
2023-02-12T02:10:02.023Z,60.75
2023-02-12T02:15:10.638Z,61.03
2023-02-12T02:20:32.976Z,61.19
2023-02-12T02:25:56.699Z,61.21
2023-02-12T02:31:07.164Z,61.19
2023-02-12T02:36:22.222Z,61.41
2023-02-12T02:41:34.884Z,61.49
2023-02-12T02:46:45.454Z,61.32
2023-02-12T02:51:56.147Z,61.38
2023-02-12T02:57:06.700Z,61.36
2023-02-12T03:02:17.345Z,61.19
2023-02-12T03:07:27.796Z,61.24
2023-02-12T03:12:37.721Z,60.87
2023-02-12T03:17:47.114Z,60.86
2023-02-12T03:22:57.291Z,60.68
2023-02-12T03:28:06.558Z,60.48
2023-02-12T03:33:18.651Z,60.38
2023-02-12T03:38:31.266Z,60.11
2023-02-12T03:43:42.561Z,60.06
2023-02-12T03:48:53.761Z,59.74
2023-02-12T03:54:01.133Z,59.73
2023-02-12T03:59:08.461Z,59.71
2023-02-12T04:04:15.685Z,59.50
2023-02-12T04:09:24.040Z,59.56
2023-02-12T04:14:38.470Z,59.54
2023-02-12T04:19:53.232Z,59.44
2023-02-12T04:25:09.849Z,59.40
2023-02-12T04:30:23.069Z,59.12
2023-02-12T04:35:34.321Z,59.34
2023-02-12T04:40:43.194Z,59.16
2023-02-12T04:45:50.536Z,59.01
2023-02-12T04:50:57.695Z,59.07
2023-02-12T04:56:05.306Z,59.22
2023-02-12T05:01:13.015Z,59.40
2023-02-12T05:06:20.685Z,59.31
2023-02-12T05:11:28.225Z,59.32
2023-02-12T05:16:35.495Z,59.30
2023-02-12T05:21:43.100Z,59.21
2023-02-12T05:26:51.177Z,59.68
2023-02-12T05:31:58.763Z,59.63
2023-02-12T05:37:06.377Z,59.58
2023-02-12T05:42:13.789Z,59.65
2023-02-12T05:47:21.165Z,59.75
2023-02-12T05:52:28.374Z,59.83
2023-02-12T05:57:35.684Z,59.86
2023-02-12T06:02:43.006Z,59.99
2023-02-12T06:07:50.232Z,60.28
2023-02-12T06:12:57.803Z,60.59
2023-02-12T06:18:05.578Z,60.48
2023-02-12T06:23:13.379Z,60.56
2023-02-12T06:28:20.882Z,60.69
2023-02-12T06:33:28.272Z,60.80
2023-02-12T06:38:36.303Z,61.04
2023-02-12T06:43:44.039Z,61.02
2023-02-12T06:48:51.364Z,61.05
2023-02-12T06:53:58.406Z,61.15
2023-02-12T06:59:05.725Z,61.36
2023-02-12T07:04:13.423Z,61.59
2023-02-12T07:09:20.636Z,61.60
2023-02-12T07:14:28.935Z,61.66
2023-02-12T07:19:36.206Z,61.56
2023-02-12T07:24:43.995Z,61.85
2023-02-12T07:29:51.106Z,61.84
2023-02-12T07:34:58.281Z,61.89
2023-02-12T07:40:05.842Z,61.95
2023-02-12T07:45:13.684Z,62.10
2023-02-12T07:50:21.560Z,62.08
2023-02-12T07:55:29.501Z,62.08
2023-02-12T08:00:36.888Z,62.27
2023-02-12T08:05:44.157Z,62.24
2023-02-12T08:10:51.597Z,62.51
2023-02-12T08:16:03.619Z,62.51
2023-02-12T08:21:11.455Z,62.48
2023-02-12T08:26:19.317Z,62.60
2023-02-12T08:31:27.934Z,62.53
2023-02-12T08:36:38.218Z,62.80
2023-02-12T08:41:45.363Z,62.70
2023-02-12T08:46:53.171Z,62.55
2023-02-12T08:52:02.109Z,62.76
2023-02-12T08:57:09.394Z,62.70
2023-02-12T09:02:16.636Z,62.62
2023-02-12T09:07:24.243Z,62.81
2023-02-12T09:12:31.670Z,62.68
2023-02-12T09:17:39.189Z,62.82
2023-02-12T09:22:46.660Z,62.49
2023-02-12T09:27:54.211Z,62.62
2023-02-12T09:33:01.559Z,62.58
2023-02-12T09:38:09.512Z,62.43
2023-02-12T09:43:20.755Z,62.57
2023-02-12T09:48:36.431Z,62.29
2023-02-12T09:53:46.263Z,62.36
2023-02-12T09:58:54.366Z,62.29
2023-02-12T10:04:02.016Z,62.50
2023-02-12T10:09:27.197Z,62.32
2023-02-12T10:15:00.102Z,62.28
2023-02-12T10:20:27.166Z,62.37
2023-02-12T10:25:38.507Z,62.23
2023-02-12T10:30:50.971Z,62.21
2023-02-12T10:36:02.109Z,62.39
2023-02-12T10:41:09.903Z,62.51
2023-02-12T10:46:19.979Z,62.11
2023-02-12T10:51:40.433Z,62.44
2023-02-12T10:56:47.651Z,62.25
2023-02-12T11:01:54.853Z,62.38
2023-02-12T11:07:03.961Z,62.49
2023-02-12T11:12:21.701Z,62.36
2023-02-12T11:17:33.221Z,62.08
2023-02-12T11:22:51.309Z,62.25
2023-02-12T11:28:15.733Z,62.32
2023-02-12T11:33:27.293Z,62.44
2023-02-12T11:38:36.695Z,62.36
2023-02-12T11:43:44.033Z,62.45
2023-02-12T11:48:51.604Z,62.51
2023-02-12T11:53:59.947Z,62.32
2023-02-12T11:59:14.473Z,62.29
2023-02-12T12:04:25.079Z,62.25
2023-02-12T12:09:35.271Z,62.20
2023-02-12T12:14:58.332Z,62.07
2023-02-12T12:20:07.672Z,62.05
2023-02-12T12:25:19.548Z,62.19
2023-02-12T12:30:34.595Z,62.14
2023-02-12T12:35:45.894Z,62.22
2023-02-12T12:40:56.996Z,61.64
2023-02-12T12:46:10.517Z,61.77
2023-02-12T12:51:26.324Z,61.94
2023-02-12T12:56:42.067Z,61.74
2023-02-12T13:02:05.545Z,61.73
2023-02-12T13:07:20.607Z,61.63
2023-02-12T13:12:35.935Z,61.63
2023-02-12T13:17:47.385Z,61.56
2023-02-12T13:22:59.550Z,61.68
2023-02-12T13:28:07.982Z,61.68
2023-02-12T13:33:20.019Z,61.67
2023-02-12T13:38:28.225Z,61.61
2023-02-12T13:43:41.307Z,61.79
2023-02-12T13:48:54.577Z,61.57
2023-02-12T13:54:08.925Z,61.72
2023-02-12T13:59:33.259Z,61.82
2023-02-12T14:04:44.078Z,61.58
2023-02-12T14:10:03.810Z,61.81
2023-02-12T14:15:13.064Z,61.91
2023-02-12T14:20:30.387Z,61.90
2023-02-12T14:25:40.986Z,61.72
2023-02-12T14:30:49.091Z,61.70
2023-02-12T14:36:13.692Z,61.82
2023-02-12T14:41:45.391Z,61.64
2023-02-12T14:46:53.476Z,61.79
2023-02-12T14:52:05.342Z,61.97
2023-02-12T14:57:22.051Z,61.99
2023-02-12T15:02:30.123Z,61.80
2023-02-12T15:07:39.972Z,62.09
2023-02-12T15:12:49.303Z,61.88
2023-02-12T15:18:00.471Z,61.94
2023-02-12T15:23:20.701Z,62.13
2023-02-12T15:28:34.049Z,62.27
2023-02-12T15:33:42.582Z,61.91
2023-02-12T15:38:52.793Z,61.74
2023-02-12T15:44:00.451Z,61.92
2023-02-12T15:49:22.737Z,62.05
2023-02-12T15:54:30.381Z,61.77
2023-02-12T15:59:37.882Z,62.14
2023-02-12T16:04:46.101Z,62.08
2023-02-12T16:09:54.306Z,62.22
2023-02-12T16:15:02.233Z,62.18
2023-02-12T16:20:22.932Z,62.23
2023-02-12T16:25:31.242Z,62.21
2023-02-12T16:30:39.464Z,62.17
2023-02-12T16:35:46.786Z,62.01
2023-02-12T16:41:16.247Z,62.01
2023-02-12T16:46:23.752Z,61.92
2023-02-12T16:51:32.034Z,61.97
2023-02-12T16:56:39.772Z,62.21
2023-02-12T17:01:58.740Z,62.21
2023-02-12T17:07:06.244Z,62.13
2023-02-12T17:12:13.667Z,62.18
2023-02-12T17:17:21.120Z,62.24
2023-02-12T17:22:29.273Z,62.34
2023-02-12T17:27:38.176Z,62.06
2023-02-12T17:32:45.768Z,62.16
2023-02-12T17:37:52.861Z,62.40
2023-02-12T17:43:00.377Z,62.15
2023-02-12T17:48:08.237Z,62.27
2023-02-12T17:53:15.511Z,62.45
2023-02-12T17:58:22.811Z,62.13
2023-02-12T18:03:30.176Z,62.38
2023-02-12T18:08:37.299Z,62.32
2023-02-12T18:13:44.635Z,62.52
2023-02-12T18:18:52.285Z,62.22
2023-02-12T18:23:59.785Z,62.34
2023-02-12T18:29:07.306Z,62.33
2023-02-12T18:34:14.674Z,62.26
2023-02-12T18:39:22.106Z,62.16
2023-02-12T18:44:29.422Z,62.37
2023-02-12T18:49:36.735Z,62.39
2023-02-12T18:54:44.877Z,62.53
2023-02-12T18:59:51.966Z,62.42
2023-02-12T19:04:59.675Z,62.58
2023-02-12T19:10:07.803Z,62.32
2023-02-12T19:15:15.211Z,62.35
2023-02-12T19:20:22.854Z,62.50
2023-02-12T19:25:30.200Z,62.31
2023-02-12T19:30:37.763Z,62.53
2023-02-12T19:35:46.249Z,62.30
2023-02-12T19:40:53.998Z,62.53
2023-02-12T19:46:05.138Z,62.50
2023-02-12T19:51:14.517Z,62.67
2023-02-12T19:56:22.176Z,62.54
2023-02-12T20:01:30.168Z,62.47
2023-02-12T20:06:38.907Z,62.56
2023-02-12T20:11:46.433Z,62.57
2023-02-12T20:16:55.717Z,62.47
2023-02-12T20:22:03.759Z,62.73
2023-02-12T20:27:12.494Z,62.43
2023-02-12T20:32:19.590Z,62.63
2023-02-12T20:37:26.747Z,62.57
2023-02-12T20:42:34.118Z,62.47
2023-02-12T20:47:41.296Z,62.69
2023-02-12T20:52:48.725Z,62.57
2023-02-12T20:57:55.934Z,62.56
2023-02-12T21:03:04.366Z,62.48
2023-02-12T21:08:11.742Z,62.41
2023-02-12T21:13:19.235Z,62.68
2023-02-12T21:18:28.624Z,62.65
2023-02-12T21:23:36.288Z,62.62
2023-02-12T21:28:44.077Z,62.70
2023-02-12T21:33:52.248Z,62.58
2023-02-12T21:38:59.971Z,62.61
2023-02-12T21:44:08.524Z,62.62
2023-02-12T21:49:17.890Z,62.72
2023-02-12T21:54:25.348Z,62.62
2023-02-12T21:59:32.733Z,62.56
2023-02-12T22:04:39.831Z,62.63
2023-02-12T22:09:47.128Z,62.71
2023-02-12T22:14:54.589Z,62.66
2023-02-12T22:20:01.744Z,62.63
2023-02-12T22:25:09.230Z,62.80
2023-02-12T22:30:17.157Z,62.78
2023-02-12T22:35:24.875Z,62.83
2023-02-12T22:40:32.543Z,62.80
2023-02-12T22:45:39.741Z,62.79
2023-02-12T22:50:47.527Z,62.84
2023-02-12T22:55:55.089Z,62.81
2023-02-12T23:01:06.008Z,62.85
2023-02-12T23:06:15.555Z,62.71
2023-02-12T23:11:24.772Z,62.80
2023-02-12T23:16:31.993Z,62.94
2023-02-12T23:21:39.394Z,62.84
2023-02-12T23:26:46.618Z,62.78
2023-02-12T23:31:53.988Z,62.83
2023-02-12T23:37:01.839Z,62.87
2023-02-12T23:42:09.309Z,62.77
2023-02-12T23:47:16.529Z,62.98
2023-02-12T23:52:23.752Z,62.93
2023-02-12T23:57:30.940Z,62.85
